Flight Track Log - Related Links

Times and Time Zones

All times are in EDT time to prevent confusion due to time zone crossing. See the CTA400 flight status page for this flight to view local times or setup timezone preferences in your user account.

Time Position Orientation Groundspeed Altitude Reporting Facility
EDT Latitude Longitude Course Direction KTS MPH feet Rate Location/Type
Mon 10:20:56 AM 33.6689 -101.7883 18° North 132 152 4,400  Level Fort Worth Center
Mon 10:21:50 AM 33.7028 -101.7753 18° North 148 170 5,800 1,636 Climbing Fort Worth Center
Mon 10:22:57 AM 33.7450 -101.7622 14° North 137 158 7,700 1,266 Climbing Fort Worth Center
Mon 10:23:58 AM 33.7806 -101.7592 North 128 147 8,500 347 Climbing Fort Worth Center
Mon 10:24:58 AM 33.8267 -101.7539 North 170 196 8,400  Descending Fort Worth Center
Mon 10:25:59 AM 33.8747 -101.7511 North 175 201 8,500 99 Climbing Fort Worth Center
Mon 10:26:59 AM 33.9233 -101.7386 12° North 170 196 8,600  Climbing Fort Worth Center
Mon 10:27:54 AM 33.9608 -101.7356 North 173 199 8,500 -78 Descending Fort Worth Center
Mon 10:28:16 AM 33.9778 -101.7314 12° North 176 203 8,500 -73 Level Fort Worth Center
Mon 10:29:16 AM 34.0322 -101.7242 North 196 226 8,400 -50 Descending Fort Worth Center
Mon 10:30:16 AM 34.0744 -101.7136 12° North 180 207 8,400 50 Level Fort Worth Center
Mon 10:31:16 AM 34.1244 -101.7086 North 180 207 8,500 50 Climbing Fort Worth Center
Mon 10:32:16 AM 34.1706 -101.7083 360° North 180 207 8,500  Level Fort Worth Center
Mon 10:33:16 AM 34.2228 -101.7008 North 175 201 8,500 -65 Level Fort Worth Center
Mon 10:35:21 AM 34.3247 -101.6831 North 176 203 8,300 -32 Descending Albuquerque Center
Mon 10:36:23 AM 34.3717 -101.6775 North 174 200 8,400 97 Climbing Albuquerque Center
Mon 10:37:25 AM 34.4186 -101.6719 North 171 197 8,500 49 Climbing Albuquerque Center
Mon 10:38:26 AM 34.4664 -101.6644 North 171 197 8,500 -49 Level Albuquerque Center
Mon 10:39:28 AM 34.5164 -101.6553 North 176 203 8,400  Descending Albuquerque Center
Mon 10:40:30 AM 34.5644 -101.6469 North 176 203 8,500  Climbing Albuquerque Center
Mon 10:41:32 AM 34.6217 -101.6333 11° North 176 203 8,400 -48 Descending Albuquerque Center
Mon 10:42:34 AM 34.6717 -101.6231 10° North 178 205 8,400  Level Albuquerque Center
Mon 10:43:35 AM 34.7203 -101.6133 North 178 205 8,400  Level Albuquerque Center
Mon 10:44:37 AM 34.7694 -101.6064 North 178 205 8,400  Level Albuquerque Center
Mon 10:45:39 AM 34.8181 -101.6017 North 177 204 8,400 -290 Level Albuquerque Center
Mon 10:46:41 AM 34.8675 -101.5986 North 177 204 7,800 -677 Descending Albuquerque Center
Mon 10:47:43 AM 34.9286 -101.5994 359° North 180 207 7,000 -732 Descending Albuquerque Center
Mon 10:48:44 AM 34.9808 -101.6036 356° North 184 212 6,300 -683 Descending Albuquerque Center
Mon 10:49:46 AM 35.0317 -101.6103 354° North 185 213 5,600 -629 Descending Albuquerque Center
Mon 10:50:48 AM 35.0803 -101.6200 351° North 181 208 5,000 -339 Descending Albuquerque Center
Mon 10:51:50 AM 35.1275 -101.6261 354° North 176 203 4,900 -97 Descending Albuquerque Center
Mon 10:52:52 AM 35.1739 -101.6253 North 171 197 4,800 -146 Descending Albuquerque Center
Mon 10:53:53 AM 35.2119 -101.6328 351° North 164 189 4,600 -244 Descending Albuquerque Center
Mon 10:54:55 AM 35.2433 -101.6569 328° Northwest 141 162 4,300 -339 Descending Albuquerque Center
Mon 10:55:57 AM 35.2403 -101.6878 263° West 127 146 3,900 -387 Descending Albuquerque Center

Login

Don't have an account? Register now (free) for customized features, flight alerts, and more!